sensor_id;sensor_type;location;lat;lon;timestamp;P1;P2;P0
49656;PMS5003;71194;38.900;-77.124;2023-09-18T00:00:41;13;12;
49656;PMS5003;71194;38.900;-77.124;2023-09-18T00:03:09;14;10;
49656;PMS5003;71194;38.900;-77.124;2023-09-18T00:05:38;24;21;
49656;PMS5003;71194;38.900;-77.124;2023-09-18T00:08:06;14;14;
49656;PMS5003;71194;38.900;-77.124;2023-09-18T00:10:34;27;27;
49656;PMS5003;71194;38.900;-77.124;2023-09-18T00:13:02;16;16;
49656;PMS5003;71194;38.900;-77.124;2023-09-18T00:15:30;15;15;
49656;PMS5003;71194;38.900;-77.124;2023-09-18T00:17:57;10;10;
49656;PMS5003;71194;38.900;-77.124;2023-09-18T00:20:25;13;12;
49656;PMS5003;71194;38.900;-77.124;2023-09-18T00:22:53;12;10;
49656;PMS5003;71194;38.900;-77.124;2023-09-18T00:25:21;16;10;
49656;PMS5003;71194;38.900;-77.124;2023-09-18T00:27:49;10;10;
49656;PMS5003;71194;38.900;-77.124;2023-09-18T00:30:17;13;11;
49656;PMS5003;71194;38.900;-77.124;2023-09-18T00:32:45;13;13;
49656;PMS5003;71194;38.900;-77.124;2023-09-18T00:35:13;14;13;
49656;PMS5003;71194;38.900;-77.124;2023-09-18T00:37:41;15;11;
49656;PMS5003;71194;38.900;-77.124;2023-09-18T00:40:09;11;10;
49656;PMS5003;71194;38.900;-77.124;2023-09-18T00:42:37;10;10;
49656;PMS5003;71194;38.900;-77.124;2023-09-18T00:45:05;9;7;
49656;PMS5003;71194;38.900;-77.124;2023-09-18T00:47:34;7;7;
49656;PMS5003;71194;38.900;-77.124;2023-09-18T00:50:03;13;11;
49656;PMS5003;71194;38.900;-77.124;2023-09-18T00:52:33;10;10;
49656;PMS5003;71194;38.900;-77.124;2023-09-18T00:55:01;14;11;
49656;PMS5003;71194;38.900;-77.124;2023-09-18T00:57:30;12;9;
49656;PMS5003;71194;38.900;-77.124;2023-09-18T00:59:58;12;9;
49656;PMS5003;71194;38.900;-77.124;2023-09-18T01:02:26;14;12;
49656;PMS5003;71194;38.900;-77.124;2023-09-18T01:04:54;10;9;
49656;PMS5003;71194;38.900;-77.124;2023-09-18T01:07:23;11;9;
49656;PMS5003;71194;38.900;-77.124;2023-09-18T01:09:52;11;11;
49656;PMS5003;71194;38.900;-77.124;2023-09-18T01:12:22;9;9;
49656;PMS5003;71194;38.900;-77.124;2023-09-18T01:14:59;10;9;
49656;PMS5003;71194;38.900;-77.124;2023-09-18T01:17:35;9;9;
49656;PMS5003;71194;38.900;-77.124;2023-09-18T01:20:03;10;10;
49656;PMS5003;71194;38.900;-77.124;2023-09-18T01:22:32;12;12;
49656;PMS5003;71194;38.900;-77.124;2023-09-18T01:24:59;10;10;
49656;PMS5003;71194;38.900;-77.124;2023-09-18T01:27:27;12;9;
49656;PMS5003;71194;38.900;-77.124;2023-09-18T01:29:55;9;9;
49656;PMS5003;71194;38.900;-77.124;2023-09-18T01:32:24;8;7;
49656;PMS5003;71194;38.900;-77.124;2023-09-18T01:34:55;13;11;
49656;PMS5003;71194;38.900;-77.124;2023-09-18T01:37:26;10;10;
49656;PMS5003;71194;38.900;-77.124;2023-09-18T01:39:57;11;9;
49656;PMS5003;71194;38.900;-77.124;2023-09-18T01:42:25;8;8;
49656;PMS5003;71194;38.900;-77.124;2023-09-18T01:44:54;9;9;
49656;PMS5003;71194;38.900;-77.124;2023-09-18T01:47:23;12;11;
49656;PMS5003;71194;38.900;-77.124;2023-09-18T01:49:51;15;13;
49656;PMS5003;71194;38.900;-77.124;2023-09-18T01:52:19;16;14;
49656;PMS5003;71194;38.900;-77.124;2023-09-18T01:54:47;10;10;
49656;PMS5003;71194;38.900;-77.124;2023-09-18T01:57:15;11;9;
49656;PMS5003;71194;38.900;-77.124;2023-09-18T01:59:42;11;11;
49656;PMS5003;71194;38.900;-77.124;2023-09-18T02:02:10;11;11;
49656;PMS5003;71194;38.900;-77.124;2023-09-18T02:04:38;10;9;
49656;PMS5003;71194;38.900;-77.124;2023-09-18T02:07:06;10;9;
49656;PMS5003;71194;38.900;-77.124;2023-09-18T02:09:34;9;9;
49656;PMS5003;71194;38.900;-77.124;2023-09-18T02:12:02;8;8;
49656;PMS5003;71194;38.900;-77.124;2023-09-18T02:14:30;9;7;
49656;PMS5003;71194;38.900;-77.124;2023-09-18T02:16:58;6;5;
49656;PMS5003;71194;38.900;-77.124;2023-09-18T02:19:26;8;7;
49656;PMS5003;71194;38.900;-77.124;2023-09-18T02:21:55;7;7;
49656;PMS5003;71194;38.900;-77.124;2023-09-18T02:24:23;11;10;
49656;PMS5003;71194;38.900;-77.124;2023-09-18T02:26:51;6;6;
49656;PMS5003;71194;38.900;-77.124;2023-09-18T02:29:19;9;6;
49656;PMS5003;71194;38.900;-77.124;2023-09-18T02:31:47;6;5;
49656;PMS5003;71194;38.900;-77.124;2023-09-18T02:34:14;6;6;
49656;PMS5003;71194;38.900;-77.124;2023-09-18T02:36:42;8;8;
49656;PMS5003;71194;38.900;-77.124;2023-09-18T02:39:10;9;7;
49656;PMS5003;71194;38.900;-77.124;2023-09-18T02:41:38;7;7;
49656;PMS5003;71194;38.900;-77.124;2023-09-18T02:44:06;7;7;
49656;PMS5003;71194;38.900;-77.124;2023-09-18T02:46:34;6;6;
49656;PMS5003;71194;38.900;-77.124;2023-09-18T02:49:03;6;6;
49656;PMS5003;71194;38.900;-77.124;2023-09-18T02:51:30;8;6;
49656;PMS5003;71194;38.900;-77.124;2023-09-18T02:53:58;7;6;
49656;PMS5003;71194;38.900;-77.124;2023-09-18T02:56:27;10;8;
49656;PMS5003;71194;38.900;-77.124;2023-09-18T02:58:54;8;6;
49656;PMS5003;71194;38.900;-77.124;2023-09-18T03:01:22;10;9;
49656;PMS5003;71194;38.900;-77.124;2023-09-18T03:03:50;7;6;
49656;PMS5003;71194;38.900;-77.124;2023-09-18T03:06:18;5;5;
49656;PMS5003;71194;38.900;-77.124;2023-09-18T03:08:46;10;7;
49656;PMS5003;71194;38.900;-77.124;2023-09-18T03:11:14;6;5;
49656;PMS5003;71194;38.900;-77.124;2023-09-18T03:13:43;6;6;
49656;PMS5003;71194;38.900;-77.124;2023-09-18T03:16:12;6;6;
49656;PMS5003;71194;38.900;-77.124;2023-09-18T03:18:40;10;10;
49656;PMS5003;71194;38.900;-77.124;2023-09-18T03:21:08;8;7;
49656;PMS5003;71194;38.900;-77.124;2023-09-18T03:23:36;8;6;
49656;PMS5003;71194;38.900;-77.124;2023-09-18T03:26:04;7;7;
49656;PMS5003;71194;38.900;-77.124;2023-09-18T03:28:31;5;5;
49656;PMS5003;71194;38.900;-77.124;2023-09-18T03:30:59;8;8;
49656;PMS5003;71194;38.900;-77.124;2023-09-18T03:33:27;8;6;
49656;PMS5003;71194;38.900;-77.124;2023-09-18T03:35:55;5;5;
49656;PMS5003;71194;38.900;-77.124;2023-09-18T03:38:23;6;6;
49656;PMS5003;71194;38.900;-77.124;2023-09-18T03:40:51;6;6;
49656;PMS5003;71194;38.900;-77.124;2023-09-18T03:43:19;6;5;
49656;PMS5003;71194;38.900;-77.124;2023-09-18T03:45:46;8;7;
49656;PMS5003;71194;38.900;-77.124;2023-09-18T03:48:14;6;6;
49656;PMS5003;71194;38.900;-77.124;2023-09-18T03:50:42;6;6;
49656;PMS5003;71194;38.900;-77.124;2023-09-18T03:53:10;7;7;
49656;PMS5003;71194;38.900;-77.124;2023-09-18T03:55:38;3;3;
49656;PMS5003;71194;38.900;-77.124;2023-09-18T03:58:06;9;7;
49656;PMS5003;71194;38.900;-77.124;2023-09-18T04:00:34;8;7;
49656;PMS5003;71194;38.900;-77.124;2023-09-18T04:03:03;10;5;
49656;PMS5003;71194;38.900;-77.124;2023-09-18T04:05:30;10;10;
49656;PMS5003;71194;38.900;-77.124;2023-09-18T04:07:58;5;5;
49656;PMS5003;71194;38.900;-77.124;2023-09-18T04:10:26;7;5;
49656;PMS5003;71194;38.900;-77.124;2023-09-18T04:12:54;5;5;
49656;PMS5003;71194;38.900;-77.124;2023-09-18T04:15:22;6;6;
49656;PMS5003;71194;38.900;-77.124;2023-09-18T04:17:50;12;7;
49656;PMS5003;71194;38.900;-77.124;2023-09-18T04:20:17;7;7;
49656;PMS5003;71194;38.900;-77.124;2023-09-18T04:22:46;10;10;
49656;PMS5003;71194;38.900;-77.124;2023-09-18T04:25:14;6;5;
49656;PMS5003;71194;38.900;-77.124;2023-09-18T04:27:43;9;7;
49656;PMS5003;71194;38.900;-77.124;2023-09-18T04:30:11;7;7;
49656;PMS5003;71194;38.900;-77.124;2023-09-18T04:32:39;7;7;
49656;PMS5003;71194;38.900;-77.124;2023-09-18T04:35:07;7;7;
49656;PMS5003;71194;38.900;-77.124;2023-09-18T04:37:36;6;6;
49656;PMS5003;71194;38.900;-77.124;2023-09-18T04:40:05;5;5;
49656;PMS5003;71194;38.900;-77.124;2023-09-18T04:42:34;7;7;
49656;PMS5003;71194;38.900;-77.124;2023-09-18T04:45:02;5;5;
49656;PMS5003;71194;38.900;-77.124;2023-09-18T04:47:30;6;6;
49656;PMS5003;71194;38.900;-77.124;2023-09-18T04:49:58;9;7;
49656;PMS5003;71194;38.900;-77.124;2023-09-18T04:52:26;7;7;
49656;PMS5003;71194;38.900;-77.124;2023-09-18T04:54:54;9;7;
49656;PMS5003;71194;38.900;-77.124;2023-09-18T04:57:22;7;7;
49656;PMS5003;71194;38.900;-77.124;2023-09-18T04:59:50;9;8;
49656;PMS5003;71194;38.900;-77.124;2023-09-18T05:02:18;8;5;
49656;PMS5003;71194;38.900;-77.124;2023-09-18T05:04:46;4;4;
49656;PMS5003;71194;38.900;-77.124;2023-09-18T05:07:14;5;5;
49656;PMS5003;71194;38.900;-77.124;2023-09-18T05:09:42;7;6;
49656;PMS5003;71194;38.900;-77.124;2023-09-18T05:12:10;6;4;
49656;PMS5003;71194;38.900;-77.124;2023-09-18T05:14:38;6;6;
49656;PMS5003;71194;38.900;-77.124;2023-09-18T05:17:08;6;6;
49656;PMS5003;71194;38.900;-77.124;2023-09-18T05:19:36;7;6;
49656;PMS5003;71194;38.900;-77.124;2023-09-18T05:22:05;8;7;
49656;PMS5003;71194;38.900;-77.124;2023-09-18T05:24:32;8;6;
49656;PMS5003;71194;38.900;-77.124;2023-09-18T05:27:00;9;8;
49656;PMS5003;71194;38.900;-77.124;2023-09-18T05:29:28;6;6;
49656;PMS5003;71194;38.900;-77.124;2023-09-18T05:31:56;7;6;
49656;PMS5003;71194;38.900;-77.124;2023-09-18T05:34:24;4;4;
49656;PMS5003;71194;38.900;-77.124;2023-09-18T05:36:52;8;7;
49656;PMS5003;71194;38.900;-77.124;2023-09-18T05:39:20;9;6;
49656;PMS5003;71194;38.900;-77.124;2023-09-18T05:41:48;9;6;
49656;PMS5003;71194;38.900;-77.124;2023-09-18T05:44:16;7;7;
49656;PMS5003;71194;38.900;-77.124;2023-09-18T05:46:44;8;8;
49656;PMS5003;71194;38.900;-77.124;2023-09-18T05:49:12;5;5;
49656;PMS5003;71194;38.900;-77.124;2023-09-18T05:51:40;5;5;
49656;PMS5003;71194;38.900;-77.124;2023-09-18T05:54:08;3;3;
49656;PMS5003;71194;38.900;-77.124;2023-09-18T05:56:38;5;4;
49656;PMS5003;71194;38.900;-77.124;2023-09-18T05:59:06;5;5;
49656;PMS5003;71194;38.900;-77.124;2023-09-18T06:01:33;5;5;
49656;PMS5003;71194;38.900;-77.124;2023-09-18T06:04:01;5;5;
49656;PMS5003;71194;38.900;-77.124;2023-09-18T06:06:29;10;8;
49656;PMS5003;71194;38.900;-77.124;2023-09-18T06:08:58;8;8;
49656;PMS5003;71194;38.900;-77.124;2023-09-18T06:11:25;7;6;
49656;PMS5003;71194;38.900;-77.124;2023-09-18T06:13:53;9;6;
49656;PMS5003;71194;38.900;-77.124;2023-09-18T06:16:21;5;5;
49656;PMS5003;71194;38.900;-77.124;2023-09-18T06:18:49;8;8;
49656;PMS5003;71194;38.900;-77.124;2023-09-18T06:21:17;5;5;
49656;PMS5003;71194;38.900;-77.124;2023-09-18T06:23:45;10;8;
49656;PMS5003;71194;38.900;-77.124;2023-09-18T06:26:13;6;6;
49656;PMS5003;71194;38.900;-77.124;2023-09-18T06:28:41;7;6;
49656;PMS5003;71194;38.900;-77.124;2023-09-18T06:31:09;5;5;
49656;PMS5003;71194;38.900;-77.124;2023-09-18T06:33:38;5;5;
49656;PMS5003;71194;38.900;-77.124;2023-09-18T06:36:06;8;6;
49656;PMS5003;71194;38.900;-77.124;2023-09-18T06:38:34;6;6;
49656;PMS5003;71194;38.900;-77.124;2023-09-18T06:41:02;6;6;
49656;PMS5003;71194;38.900;-77.124;2023-09-18T06:43:30;6;5;
49656;PMS5003;71194;38.900;-77.124;2023-09-18T06:45:58;11;6;
49656;PMS5003;71194;38.900;-77.124;2023-09-18T06:48:26;7;5;
49656;PMS5003;71194;38.900;-77.124;2023-09-18T06:50:54;7;6;
49656;PMS5003;71194;38.900;-77.124;2023-09-18T06:53:22;6;6;
49656;PMS5003;71194;38.900;-77.124;2023-09-18T06:55:50;6;4;
49656;PMS5003;71194;38.900;-77.124;2023-09-18T06:58:19;7;7;
49656;PMS5003;71194;38.900;-77.124;2023-09-18T07:00:50;11;8;
49656;PMS5003;71194;38.900;-77.124;2023-09-18T07:03:22;6;6;
49656;PMS5003;71194;38.900;-77.124;2023-09-18T07:05:53;8;5;
49656;PMS5003;71194;38.900;-77.124;2023-09-18T07:08:21;9;7;
49656;PMS5003;71194;38.900;-77.124;2023-09-18T07:10:51;6;5;
49656;PMS5003;71194;38.900;-77.124;2023-09-18T07:13:18;5;5;
49656;PMS5003;71194;38.900;-77.124;2023-09-18T07:15:46;6;5;
49656;PMS5003;71194;38.900;-77.124;2023-09-18T07:18:14;7;6;
49656;PMS5003;71194;38.900;-77.124;2023-09-18T07:20:43;9;7;
49656;PMS5003;71194;38.900;-77.124;2023-09-18T07:23:16;4;4;
49656;PMS5003;71194;38.900;-77.124;2023-09-18T07:25:44;8;8;
49656;PMS5003;71194;38.900;-77.124;2023-09-18T07:28:15;5;5;
49656;PMS5003;71194;38.900;-77.124;2023-09-18T07:30:43;6;6;
49656;PMS5003;71194;38.900;-77.124;2023-09-18T07:33:11;5;5;
49656;PMS5003;71194;38.900;-77.124;2023-09-18T07:35:40;7;7;
49656;PMS5003;71194;38.900;-77.124;2023-09-18T07:38:08;9;7;
49656;PMS5003;71194;38.900;-77.124;2023-09-18T07:40:36;6;6;
49656;PMS5003;71194;38.900;-77.124;2023-09-18T07:43:04;7;5;
49656;PMS5003;71194;38.900;-77.124;2023-09-18T07:45:33;7;7;
49656;PMS5003;71194;38.900;-77.124;2023-09-18T07:48:01;7;6;
49656;PMS5003;71194;38.900;-77.124;2023-09-18T07:50:29;6;6;
49656;PMS5003;71194;38.900;-77.124;2023-09-18T07:52:56;7;7;
49656;PMS5003;71194;38.900;-77.124;2023-09-18T07:55:24;9;8;
49656;PMS5003;71194;38.900;-77.124;2023-09-18T07:57:52;5;5;
49656;PMS5003;71194;38.900;-77.124;2023-09-18T08:00:20;5;5;
49656;PMS5003;71194;38.900;-77.124;2023-09-18T08:02:48;5;5;
49656;PMS5003;71194;38.900;-77.124;2023-09-18T08:05:16;10;8;
49656;PMS5003;71194;38.900;-77.124;2023-09-18T08:07:45;7;7;
49656;PMS5003;71194;38.900;-77.124;2023-09-18T08:10:13;7;5;
49656;PMS5003;71194;38.900;-77.124;2023-09-18T08:12:41;7;6;
49656;PMS5003;71194;38.900;-77.124;2023-09-18T08:15:09;6;6;
49656;PMS5003;71194;38.900;-77.124;2023-09-18T08:17:37;3;3;
49656;PMS5003;71194;38.900;-77.124;2023-09-18T08:20:05;4;4;
49656;PMS5003;71194;38.900;-77.124;2023-09-18T08:22:33;5;4;
49656;PMS5003;71194;38.900;-77.124;2023-09-18T08:25:01;6;5;
49656;PMS5003;71194;38.900;-77.124;2023-09-18T08:27:29;4;4;
49656;PMS5003;71194;38.900;-77.124;2023-09-18T08:29:58;2;2;
49656;PMS5003;71194;38.900;-77.124;2023-09-18T08:32:25;4;3;
49656;PMS5003;71194;38.900;-77.124;2023-09-18T08:34:54;6;4;
49656;PMS5003;71194;38.900;-77.124;2023-09-18T08:37:21;3;3;
49656;PMS5003;71194;38.900;-77.124;2023-09-18T08:39:49;2;2;
49656;PMS5003;71194;38.900;-77.124;2023-09-18T08:42:17;5;2;
49656;PMS5003;71194;38.900;-77.124;2023-09-18T08:44:48;3;3;
49656;PMS5003;71194;38.900;-77.124;2023-09-18T08:47:18;5;4;
49656;PMS5003;71194;38.900;-77.124;2023-09-18T08:49:48;2;2;
49656;PMS5003;71194;38.900;-77.124;2023-09-18T08:52:18;3;2;
49656;PMS5003;71194;38.900;-77.124;2023-09-18T08:54:47;4;4;
49656;PMS5003;71194;38.900;-77.124;2023-09-18T08:57:15;6;3;
49656;PMS5003;71194;38.900;-77.124;2023-09-18T08:59:43;1;1;
49656;PMS5003;71194;38.900;-77.124;2023-09-18T09:02:13;3;3;
49656;PMS5003;71194;38.900;-77.124;2023-09-18T09:04:41;3;2;
49656;PMS5003;71194;38.900;-77.124;2023-09-18T09:07:09;0;0;
49656;PMS5003;71194;38.900;-77.124;2023-09-18T09:09:37;2;2;
49656;PMS5003;71194;38.900;-77.124;2023-09-18T09:12:06;2;2;
49656;PMS5003;71194;38.900;-77.124;2023-09-18T09:14:34;3;2;
49656;PMS5003;71194;38.900;-77.124;2023-09-18T09:17:02;3;2;
49656;PMS5003;71194;38.900;-77.124;2023-09-18T09:19:31;2;2;
49656;PMS5003;71194;38.900;-77.124;2023-09-18T09:22:00;0;0;
49656;PMS5003;71194;38.900;-77.124;2023-09-18T09:24:36;1;1;
49656;PMS5003;71194;38.900;-77.124;2023-09-18T09:27:06;1;1;
49656;PMS5003;71194;38.900;-77.124;2023-09-18T09:29:34;0;0;
49656;PMS5003;71194;38.900;-77.124;2023-09-18T09:32:18;2;2;
49656;PMS5003;71194;38.900;-77.124;2023-09-18T09:34:46;1;1;
49656;PMS5003;71194;38.900;-77.124;2023-09-18T09:37:14;2;2;
49656;PMS5003;71194;38.900;-77.124;2023-09-18T09:39:50;1;1;
49656;PMS5003;71194;38.900;-77.124;2023-09-18T09:42:19;0;0;
49656;PMS5003;71194;38.900;-77.124;2023-09-18T09:44:48;2;1;
49656;PMS5003;71194;38.900;-77.124;2023-09-18T09:47:22;0;0;
49656;PMS5003;71194;38.900;-77.124;2023-09-18T09:49:50;1;1;
49656;PMS5003;71194;38.900;-77.124;2023-09-18T09:52:18;2;0;
49656;PMS5003;71194;38.900;-77.124;2023-09-18T09:54:46;0;0;
49656;PMS5003;71194;38.900;-77.124;2023-09-18T09:57:13;1;1;
49656;PMS5003;71194;38.900;-77.124;2023-09-18T09:59:41;0;0;
49656;PMS5003;71194;38.900;-77.124;2023-09-18T10:02:10;1;1;
49656;PMS5003;71194;38.900;-77.124;2023-09-18T10:04:38;1;1;
49656;PMS5003;71194;38.900;-77.124;2023-09-18T10:07:07;1;0;
49656;PMS5003;71194;38.900;-77.124;2023-09-18T10:09:37;2;2;
49656;PMS5003;71194;38.900;-77.124;2023-09-18T10:12:10;4;1;
49656;PMS5003;71194;38.900;-77.124;2023-09-18T10:14:39;0;0;
49656;PMS5003;71194;38.900;-77.124;2023-09-18T10:17:11;2;2;
49656;PMS5003;71194;38.900;-77.124;2023-09-18T10:19:45;3;2;
49656;PMS5003;71194;38.900;-77.124;2023-09-18T10:22:20;1;1;
49656;PMS5003;71194;38.900;-77.124;2023-09-18T10:24:54;0;0;
49656;PMS5003;71194;38.900;-77.124;2023-09-18T10:27:30;2;2;
49656;PMS5003;71194;38.900;-77.124;2023-09-18T10:30:00;1;1;
49656;PMS5003;71194;38.900;-77.124;2023-09-18T10:32:29;5;1;
49656;PMS5003;71194;38.900;-77.124;2023-09-18T10:34:57;1;1;
49656;PMS5003;71194;38.900;-77.124;2023-09-18T10:37:26;3;3;
49656;PMS5003;71194;38.900;-77.124;2023-09-18T10:39:57;2;2;
49656;PMS5003;71194;38.900;-77.124;2023-09-18T10:42:26;2;1;
49656;PMS5003;71194;38.900;-77.124;2023-09-18T10:44:55;3;3;
49656;PMS5003;71194;38.900;-77.124;2023-09-18T10:47:23;3;3;
49656;PMS5003;71194;38.900;-77.124;2023-09-18T10:49:52;3;1;
49656;PMS5003;71194;38.900;-77.124;2023-09-18T10:52:21;5;3;
49656;PMS5003;71194;38.900;-77.124;2023-09-18T10:54:49;4;3;
49656;PMS5003;71194;38.900;-77.124;2023-09-18T10:57:18;2;2;
49656;PMS5003;71194;38.900;-77.124;2023-09-18T10:59:46;2;2;
49656;PMS5003;71194;38.900;-77.124;2023-09-18T11:02:14;2;2;
49656;PMS5003;71194;38.900;-77.124;2023-09-18T11:04:42;5;3;
49656;PMS5003;71194;38.900;-77.124;2023-09-18T11:07:19;5;3;
49656;PMS5003;71194;38.900;-77.124;2023-09-18T11:09:48;2;2;
49656;PMS5003;71194;38.900;-77.124;2023-09-18T11:12:16;1;1;
49656;PMS5003;71194;38.900;-77.124;2023-09-18T11:14:46;3;3;
49656;PMS5003;71194;38.900;-77.124;2023-09-18T11:17:31;6;5;
49656;PMS5003;71194;38.900;-77.124;2023-09-18T11:20:03;2;2;
49656;PMS5003;71194;38.900;-77.124;2023-09-18T11:22:32;3;3;
49656;PMS5003;71194;38.900;-77.124;2023-09-18T11:26:07;4;2;
49656;PMS5003;71194;38.900;-77.124;2023-09-18T11:28:35;1;1;
49656;PMS5003;71194;38.900;-77.124;2023-09-18T11:31:04;2;2;
49656;PMS5003;71194;38.900;-77.124;2023-09-18T11:33:33;6;4;
49656;PMS5003;71194;38.900;-77.124;2023-09-18T11:36:03;2;2;
49656;PMS5003;71194;38.900;-77.124;2023-09-18T11:38:33;3;2;
49656;PMS5003;71194;38.900;-77.124;2023-09-18T11:41:19;1;1;
49656;PMS5003;71194;38.900;-77.124;2023-09-18T11:43:50;3;3;
49656;PMS5003;71194;38.900;-77.124;2023-09-18T11:46:19;3;3;
49656;PMS5003;71194;38.900;-77.124;2023-09-18T11:48:47;3;3;
49656;PMS5003;71194;38.900;-77.124;2023-09-18T11:51:20;2;2;
49656;PMS5003;71194;38.900;-77.124;2023-09-18T11:53:50;2;2;
49656;PMS5003;71194;38.900;-77.124;2023-09-18T11:56:21;4;4;
49656;PMS5003;71194;38.900;-77.124;2023-09-18T11:58:50;3;3;
49656;PMS5003;71194;38.900;-77.124;2023-09-18T12:01:18;7;6;
49656;PMS5003;71194;38.900;-77.124;2023-09-18T12:03:46;3;2;
49656;PMS5003;71194;38.900;-77.124;2023-09-18T12:06:20;3;3;
49656;PMS5003;71194;38.900;-77.124;2023-09-18T12:08:49;4;2;
49656;PMS5003;71194;38.900;-77.124;2023-09-18T12:11:19;4;3;
49656;PMS5003;71194;38.900;-77.124;2023-09-18T12:13:50;3;3;
49656;PMS5003;71194;38.900;-77.124;2023-09-18T12:16:18;1;1;
49656;PMS5003;71194;38.900;-77.124;2023-09-18T12:18:46;2;2;
49656;PMS5003;71194;38.900;-77.124;2023-09-18T12:21:15;4;4;
49656;PMS5003;71194;38.900;-77.124;2023-09-18T12:23:44;3;3;
49656;PMS5003;71194;38.900;-77.124;2023-09-18T12:26:13;3;3;
49656;PMS5003;71194;38.900;-77.124;2023-09-18T12:28:43;1;1;
49656;PMS5003;71194;38.900;-77.124;2023-09-18T12:31:11;3;3;
49656;PMS5003;71194;38.900;-77.124;2023-09-18T12:33:40;3;2;
49656;PMS5003;71194;38.900;-77.124;2023-09-18T12:36:09;2;2;
49656;PMS5003;71194;38.900;-77.124;2023-09-18T12:38:38;3;3;
49656;PMS5003;71194;38.900;-77.124;2023-09-18T12:41:05;2;2;
49656;PMS5003;71194;38.900;-77.124;2023-09-18T12:43:34;2;2;
49656;PMS5003;71194;38.900;-77.124;2023-09-18T12:46:04;3;2;
49656;PMS5003;71194;38.900;-77.124;2023-09-18T12:48:36;3;3;
49656;PMS5003;71194;38.900;-77.124;2023-09-18T12:51:05;2;2;
49656;PMS5003;71194;38.900;-77.124;2023-09-18T12:53:33;3;3;
49656;PMS5003;71194;38.900;-77.124;2023-09-18T12:56:05;4;3;
49656;PMS5003;71194;38.900;-77.124;2023-09-18T12:58:33;5;5;
49656;PMS5003;71194;38.900;-77.124;2023-09-18T13:01:04;4;2;
49656;PMS5003;71194;38.900;-77.124;2023-09-18T13:03:32;6;5;
49656;PMS5003;71194;38.900;-77.124;2023-09-18T13:06:08;4;2;
49656;PMS5003;71194;38.900;-77.124;2023-09-18T13:08:37;5;4;
49656;PMS5003;71194;38.900;-77.124;2023-09-18T13:11:05;4;4;
49656;PMS5003;71194;38.900;-77.124;2023-09-18T13:13:33;3;3;
49656;PMS5003;71194;38.900;-77.124;2023-09-18T13:16:04;2;2;
49656;PMS5003;71194;38.900;-77.124;2023-09-18T13:18:33;3;3;
49656;PMS5003;71194;38.900;-77.124;2023-09-18T13:21:08;2;2;
49656;PMS5003;71194;38.900;-77.124;2023-09-18T13:23:37;5;4;
49656;PMS5003;71194;38.900;-77.124;2023-09-18T13:26:05;3;3;
49656;PMS5003;71194;38.900;-77.124;2023-09-18T13:28:34;3;3;
49656;PMS5003;71194;38.900;-77.124;2023-09-18T13:31:03;5;5;
49656;PMS5003;71194;38.900;-77.124;2023-09-18T13:33:32;3;3;
49656;PMS5003;71194;38.900;-77.124;2023-09-18T13:36:00;3;3;
49656;PMS5003;71194;38.900;-77.124;2023-09-18T13:38:28;4;4;
49656;PMS5003;71194;38.900;-77.124;2023-09-18T13:40:55;5;4;
49656;PMS5003;71194;38.900;-77.124;2023-09-18T13:43:23;4;4;
49656;PMS5003;71194;38.900;-77.124;2023-09-18T13:45:51;3;3;
49656;PMS5003;71194;38.900;-77.124;2023-09-18T13:48:20;4;3;
49656;PMS5003;71194;38.900;-77.124;2023-09-18T13:50:49;4;4;
49656;PMS5003;71194;38.900;-77.124;2023-09-18T13:53:17;6;5;
49656;PMS5003;71194;38.900;-77.124;2023-09-18T13:55:45;6;6;
49656;PMS5003;71194;38.900;-77.124;2023-09-18T13:58:13;7;5;
49656;PMS5003;71194;38.900;-77.124;2023-09-18T14:00:41;5;5;
49656;PMS5003;71194;38.900;-77.124;2023-09-18T14:03:09;6;6;
49656;PMS5003;71194;38.900;-77.124;2023-09-18T14:05:37;4;4;
49656;PMS5003;71194;38.900;-77.124;2023-09-18T14:08:05;6;4;
49656;PMS5003;71194;38.900;-77.124;2023-09-18T14:10:33;4;3;
49656;PMS5003;71194;38.900;-77.124;2023-09-18T14:13:00;4;3;
49656;PMS5003;71194;38.900;-77.124;2023-09-18T14:15:28;6;6;
49656;PMS5003;71194;38.900;-77.124;2023-09-18T14:17:56;4;4;
49656;PMS5003;71194;38.900;-77.124;2023-09-18T14:20:24;4;4;
49656;PMS5003;71194;38.900;-77.124;2023-09-18T14:22:52;6;5;
49656;PMS5003;71194;38.900;-77.124;2023-09-18T14:25:20;7;6;
49656;PMS5003;71194;38.900;-77.124;2023-09-18T14:27:48;7;6;
49656;PMS5003;71194;38.900;-77.124;2023-09-18T14:30:16;6;6;
49656;PMS5003;71194;38.900;-77.124;2023-09-18T14:32:44;7;6;
49656;PMS5003;71194;38.900;-77.124;2023-09-18T14:35:12;7;6;
49656;PMS5003;71194;38.900;-77.124;2023-09-18T14:37:40;5;5;
49656;PMS5003;71194;38.900;-77.124;2023-09-18T14:40:08;6;6;
49656;PMS5003;71194;38.900;-77.124;2023-09-18T14:42:36;5;5;
49656;PMS5003;71194;38.900;-77.124;2023-09-18T14:45:04;8;7;
49656;PMS5003;71194;38.900;-77.124;2023-09-18T14:47:32;11;6;
49656;PMS5003;71194;38.900;-77.124;2023-09-18T14:50:00;7;6;
49656;PMS5003;71194;38.900;-77.124;2023-09-18T14:52:28;6;6;
49656;PMS5003;71194;38.900;-77.124;2023-09-18T14:54:56;10;9;
49656;PMS5003;71194;38.900;-77.124;2023-09-18T14:57:24;8;7;
49656;PMS5003;71194;38.900;-77.124;2023-09-18T14:59:52;7;7;
49656;PMS5003;71194;38.900;-77.124;2023-09-18T15:02:20;9;9;
49656;PMS5003;71194;38.900;-77.124;2023-09-18T15:04:49;7;7;
49656;PMS5003;71194;38.900;-77.124;2023-09-18T15:07:16;5;5;
49656;PMS5003;71194;38.900;-77.124;2023-09-18T15:09:44;6;6;
49656;PMS5003;71194;38.900;-77.124;2023-09-18T15:12:12;7;7;
49656;PMS5003;71194;38.900;-77.124;2023-09-18T15:14:40;6;6;
49656;PMS5003;71194;38.900;-77.124;2023-09-18T15:17:07;6;6;
49656;PMS5003;71194;38.900;-77.124;2023-09-18T15:19:35;6;6;
49656;PMS5003;71194;38.900;-77.124;2023-09-18T15:22:03;8;8;
49656;PMS5003;71194;38.900;-77.124;2023-09-18T15:24:31;7;7;
49656;PMS5003;71194;38.900;-77.124;2023-09-18T15:26:59;9;9;
49656;PMS5003;71194;38.900;-77.124;2023-09-18T15:29:28;10;9;
49656;PMS5003;71194;38.900;-77.124;2023-09-18T15:31:56;8;8;
49656;PMS5003;71194;38.900;-77.124;2023-09-18T15:34:24;10;10;
49656;PMS5003;71194;38.900;-77.124;2023-09-18T15:36:51;9;8;
49656;PMS5003;71194;38.900;-77.124;2023-09-18T15:39:18;7;6;
49656;PMS5003;71194;38.900;-77.124;2023-09-18T15:41:47;7;7;
49656;PMS5003;71194;38.900;-77.124;2023-09-18T15:44:14;7;6;
49656;PMS5003;71194;38.900;-77.124;2023-09-18T15:46:42;10;7;
49656;PMS5003;71194;38.900;-77.124;2023-09-18T15:49:10;9;8;
49656;PMS5003;71194;38.900;-77.124;2023-09-18T15:51:38;9;6;
49656;PMS5003;71194;38.900;-77.124;2023-09-18T15:54:06;10;7;
49656;PMS5003;71194;38.900;-77.124;2023-09-18T15:56:33;6;6;
49656;PMS5003;71194;38.900;-77.124;2023-09-18T15:59:01;9;7;
49656;PMS5003;71194;38.900;-77.124;2023-09-18T16:01:29;8;8;
49656;PMS5003;71194;38.900;-77.124;2023-09-18T16:03:57;11;10;
49656;PMS5003;71194;38.900;-77.124;2023-09-18T16:06:25;10;9;
49656;PMS5003;71194;38.900;-77.124;2023-09-18T16:08:53;10;10;
49656;PMS5003;71194;38.900;-77.124;2023-09-18T16:11:21;10;9;
49656;PMS5003;71194;38.900;-77.124;2023-09-18T16:13:49;10;6;
49656;PMS5003;71194;38.900;-77.124;2023-09-18T16:16:16;7;7;
49656;PMS5003;71194;38.900;-77.124;2023-09-18T16:18:44;7;7;
49656;PMS5003;71194;38.900;-77.124;2023-09-18T16:21:12;9;9;
49656;PMS5003;71194;38.900;-77.124;2023-09-18T16:23:40;9;9;